To NAV CANADA Home Page Login to a new session Search on AWWS site Feedback and Comments Disclaimer Vers la page française équivalente Tips FAQ What's new on the site To the Forecasts and Observations / NOTAM section To "File a Flight Plan" website Publications and other links Update of the User's profile FIC Telephone Numbers My Weather Data Folder Route Weather Data Regional Weather Data Local Weather Data To the Forecasts and Observations / NOTAM section
Request Generated 03/02/2015 at 12:41:03 UTC . Weather information available at that time is displayed.

METAR/TAF

THOMPSON/MB    

METAR CYTH 021200Z 00000KT 15SM BKN140 M21/M25 A2988 RMK AS5 SLP145=
METAR CYTH 021100Z VRB02KT 15SM SCT140 M21/M26 A2991 RMK AS3 SLP157=
METAR CYTH 021000Z 20003KT 15SM SCT140 M21/M25 A2994 RMK AC4 SLP167=

TAF CYTH 021238Z 0213/0301 VRB03KT P6SM SKC
BECMG 0213/0215 20008KT
FM022200 23010KT P6SM SCT020 BKN040 TEMPO 0222/0301 2SM -SN
OVC020
RMK NXT FCST BY 021900Z=
Your time UTC time
Weather data provided by Environment Canada and NAV CANADA